New Ipswich, New Hampshire
Current Conditions -  °F | °C
As of 3:59 PM on Monday 22 Dec 2014 (Local Time) from KAFN Reporting Station
Overcast Overcast  
Wind Chill: 34°   Ceiling: 900
Heat Index: 34°   Visibility: 10mi
Dew Point: 30°   Wind: 0mph
Humidity: 85%   Direction: NA
Pressure: 30.29"   Gusts: NA
Location:  42.75°N, 71.85°W
Report Text: KAFN 222059Z AUTO 00000KT 10SM OVC009 01/M01 A3029 RMK AO2 T00111011
Loading
Personal Weather Stations






























Interactive Weather Map New forecast layout! Learn more

10-Day Weather Forecast

Advertisements
Track Severe Weather on mobile